createdAt,value
2018-11-07T00:01:07.256Z,95205.59
2018-11-07T00:03:41.930Z,95210.95
2018-11-07T00:06:16.855Z,95214.23
2018-11-07T00:08:51.684Z,95210.03
2018-11-07T00:11:25.974Z,95208.59
2018-11-07T00:14:00.537Z,95208.91
2018-11-07T00:16:35.616Z,95199.39
2018-11-07T00:19:10.189Z,95207.70
2018-11-07T00:21:44.930Z,95211.41
2018-11-07T00:24:19.604Z,95210.98
2018-11-07T00:26:54.246Z,95203.38
2018-11-07T00:29:28.931Z,95206.47
2018-11-07T00:32:03.745Z,95200.17
2018-11-07T00:34:38.196Z,95196.43
2018-11-07T00:37:13.305Z,95203.23
2018-11-07T00:39:47.773Z,95199.34
2018-11-07T00:42:22.441Z,95196.63
2018-11-07T00:44:57.617Z,95194.71
2018-11-07T00:47:32.473Z,95192.50
2018-11-07T00:50:09.865Z,95195.85
2018-11-07T00:52:45.657Z,95199.56
2018-11-07T00:55:20.342Z,95199.81
2018-11-07T00:57:55.345Z,95200.55
2018-11-07T01:00:30.407Z,95199.69
2018-11-07T01:03:06.361Z,95192.70
2018-11-07T01:05:40.944Z,95198.31
2018-11-07T01:08:15.739Z,95208.45
2018-11-07T01:10:50.555Z,95207.47
2018-11-07T01:13:25.606Z,95212.04
2018-11-07T01:16:00.304Z,95213.95
2018-11-07T01:18:34.776Z,95211.11
2018-11-07T01:21:09.605Z,95210.25
2018-11-07T01:23:44.723Z,95213.95
2018-11-07T01:26:19.428Z,95211.92
2018-11-07T01:28:54.496Z,95208.55
2018-11-07T01:31:29.219Z,95205.47
2018-11-07T01:34:04.152Z,95201.20
2018-11-07T01:36:38.609Z,95202.69
2018-11-07T01:39:13.005Z,95201.70
2018-11-07T01:41:47.548Z,95196.45
2018-11-07T01:44:22.772Z,95189.20
2018-11-07T01:46:57.185Z,95184.50
2018-11-07T01:49:31.784Z,95183.14
2018-11-07T01:52:06.775Z,95177.47
2018-11-07T01:54:41.485Z,95181.85
2018-11-07T01:57:16.345Z,95174.25
2018-11-07T01:59:51.056Z,95168.69
2018-11-07T02:02:25.768Z,95158.25
2018-11-07T02:05:00.957Z,95162.53
2018-11-07T02:07:35.787Z,95162.72
2018-11-07T02:10:11.243Z,95163.25
2018-11-07T02:12:45.732Z,95158.92
2018-11-07T02:15:20.441Z,95164.42
2018-11-07T02:17:55.540Z,95164.36
2018-11-07T02:20:29.828Z,95168.06
2018-11-07T02:23:05.185Z,95163.07
2018-11-07T02:25:39.632Z,95166.19
2018-11-07T02:28:14.311Z,95170.70
2018-11-07T02:30:49.087Z,95161.99
2018-11-07T02:33:23.507Z,95155.63
2018-11-07T02:35:57.940Z,95158.00
2018-11-07T02:38:32.695Z,95161.80
2018-11-07T02:41:07.769Z,95159.65
2018-11-07T02:43:42.301Z,95155.52
2018-11-07T02:46:17.456Z,95159.25
2018-11-07T02:48:51.805Z,95158.59
2018-11-07T02:51:26.313Z,95156.80
2018-11-07T02:54:02.055Z,95156.53
2018-11-07T02:56:36.847Z,95153.75
2018-11-07T02:59:11.504Z,95148.94
2018-11-07T03:01:46.729Z,95149.05
2018-11-07T03:04:21.713Z,95151.65
2018-11-07T03:06:56.057Z,95154.52
2018-11-07T03:09:30.446Z,95144.86
2018-11-07T03:12:05.351Z,95149.12
2018-11-07T03:14:40.040Z,95144.86
2018-11-07T03:17:14.702Z,95151.98
2018-11-07T03:19:49.256Z,95136.55
2018-11-07T03:22:23.744Z,95139.81
2018-11-07T03:24:58.280Z,95136.05
2018-11-07T03:27:32.985Z,95140.49
2018-11-07T03:30:09.864Z,95139.02
2018-11-07T03:32:44.369Z,95136.86
2018-11-07T03:35:23.889Z,95132.66
2018-11-07T03:37:58.644Z,95133.70
2018-11-07T03:40:33.209Z,95134.66
2018-11-07T03:43:08.042Z,95134.84
2018-11-07T03:45:48.500Z,95137.31
2018-11-07T03:48:22.813Z,95135.52
2018-11-07T03:50:57.628Z,95142.73
2018-11-07T03:53:32.345Z,95136.80
2018-11-07T03:56:06.999Z,95141.98
2018-11-07T03:58:41.477Z,95141.50
2018-11-07T04:01:16.212Z,95139.05
2018-11-07T04:03:50.557Z,95130.48
2018-11-07T04:06:25.033Z,95130.56
2018-11-07T04:08:59.569Z,95128.30
2018-11-07T04:11:34.105Z,95121.59
2018-11-07T04:14:08.888Z,95127.39
2018-11-07T04:16:43.912Z,95127.73
2018-11-07T04:19:18.865Z,95126.59
2018-11-07T04:21:53.466Z,95134.73
2018-11-07T04:24:27.933Z,95136.58
2018-11-07T04:27:02.429Z,95137.11
2018-11-07T04:29:36.960Z,95135.38
2018-11-07T04:32:11.522Z,95137.04
2018-11-07T04:34:46.094Z,95134.76
2018-11-07T04:37:20.463Z,95135.12
2018-11-07T04:39:54.890Z,95131.62
2018-11-07T04:42:29.357Z,95126.00
2018-11-07T04:45:04.221Z,95119.57
2018-11-07T04:47:38.705Z,95127.23
2018-11-07T04:50:15.170Z,95127.33
2018-11-07T04:52:49.615Z,95126.21
2018-11-07T04:55:26.155Z,95130.23
2018-11-07T04:58:00.442Z,95123.80
2018-11-07T05:00:36.949Z,95126.90
2018-11-07T05:03:12.596Z,95124.48
2018-11-07T05:05:47.097Z,95118.20
2018-11-07T05:08:24.523Z,95111.05
2018-11-07T05:11:00.280Z,95110.48
2018-11-07T05:13:35.025Z,95106.34
2018-11-07T05:16:09.522Z,95111.43
2018-11-07T05:18:44.020Z,95107.73
2018-11-07T05:21:18.819Z,95115.13
2018-11-07T05:23:53.264Z,95115.05
2018-11-07T05:26:27.906Z,95120.41
2018-11-07T05:29:03.175Z,95121.61
2018-11-07T05:31:37.972Z,95130.84
2018-11-07T05:34:12.445Z,95120.44
2018-11-07T05:36:47.268Z,95119.16
2018-11-07T05:39:22.066Z,95128.55
2018-11-07T05:41:56.383Z,95133.55
2018-11-07T05:44:30.820Z,95137.27
2018-11-07T05:47:06.129Z,95130.83
2018-11-07T05:49:40.599Z,95126.95
2018-11-07T05:52:14.993Z,95126.78
2018-11-07T05:54:49.765Z,95125.93
2018-11-07T05:57:24.485Z,95124.54
2018-11-07T05:59:59.177Z,95126.22
2018-11-07T06:02:34.172Z,95130.45
2018-11-07T06:05:09.983Z,95136.32
2018-11-07T06:07:44.744Z,95129.05
2018-11-07T06:10:19.096Z,95132.13
2018-11-07T06:12:53.915Z,95145.52
2018-11-07T06:15:28.631Z,95144.34
2018-11-07T06:18:03.400Z,95139.80
2018-11-07T06:20:38.067Z,95142.27
2018-11-07T06:23:13.078Z,95137.39
2018-11-07T06:25:47.550Z,95140.44
2018-11-07T06:28:21.949Z,95136.56
2018-11-07T06:30:56.328Z,95141.55
2018-11-07T06:33:30.795Z,95140.12
2018-11-07T06:36:05.669Z,95131.42
2018-11-07T06:38:40.428Z,95139.80
2018-11-07T06:41:14.924Z,95141.44
2018-11-07T06:43:49.342Z,95142.98
2018-11-07T06:46:23.789Z,95145.75
2018-11-07T06:48:58.344Z,95138.17
2018-11-07T06:51:32.829Z,95140.38
2018-11-07T06:54:07.589Z,95148.79
2018-11-07T06:56:41.925Z,95145.55
2018-11-07T06:59:16.549Z,95145.79
2018-11-07T07:01:50.920Z,95145.72
2018-11-07T07:04:25.504Z,95158.12
2018-11-07T07:07:00.831Z,95155.78
2018-11-07T07:09:35.532Z,95155.83
2018-11-07T07:12:09.852Z,95155.47
2018-11-07T07:14:44.344Z,95151.90
2018-11-07T07:17:18.798Z,95140.50
2018-11-07T07:19:53.515Z,95144.60
2018-11-07T07:22:28.199Z,95146.03
2018-11-07T07:25:02.697Z,95154.98
2018-11-07T07:27:37.112Z,95157.09
2018-11-07T07:30:14.316Z,95148.39
2018-11-07T07:32:50.011Z,95150.64
2018-11-07T07:35:24.417Z,95155.26
2018-11-07T07:37:59.041Z,95164.03
2018-11-07T07:40:33.605Z,95159.45
2018-11-07T07:43:08.396Z,95163.63
2018-11-07T07:45:43.440Z,95153.97
2018-11-07T07:48:18.401Z,95141.56
2018-11-07T07:50:53.506Z,95148.50
2018-11-07T07:53:27.925Z,95151.77
2018-11-07T07:56:02.604Z,95154.80
2018-11-07T07:58:37.572Z,95152.80
2018-11-07T08:01:12.208Z,95146.00
2018-11-07T08:03:47.233Z,95144.23
2018-11-07T08:06:21.745Z,95137.97
2018-11-07T08:08:56.233Z,95139.22
2018-11-07T08:11:30.678Z,95144.95
2018-11-07T08:14:05.302Z,95154.41
2018-11-07T08:16:40.654Z,95152.64
2018-11-07T08:19:15.129Z,95156.73
2018-11-07T08:21:49.436Z,95152.04
2018-11-07T08:24:23.991Z,95147.17
2018-11-07T08:26:58.410Z,95142.55
2018-11-07T08:29:32.929Z,95146.09
2018-11-07T08:32:07.967Z,95144.31
2018-11-07T08:34:43.513Z,95147.07
2018-11-07T08:37:18.385Z,95134.92
2018-11-07T08:39:52.729Z,95140.33
2018-11-07T08:42:27.271Z,95137.33
2018-11-07T08:45:07.689Z,95135.06
2018-11-07T08:47:42.987Z,95129.36
2018-11-07T08:50:19.356Z,95134.70
2018-11-07T08:52:54.576Z,95138.03
2018-11-07T08:55:32.685Z,95139.97
2018-11-07T08:58:07.205Z,95143.69
2018-11-07T09:00:41.745Z,95138.47
2018-11-07T09:03:16.799Z,95148.45
2018-11-07T09:05:51.336Z,95149.19
2018-11-07T09:08:26.256Z,95145.11
2018-11-07T09:11:01.575Z,95148.59
2018-11-07T09:13:36.034Z,95147.31
2018-11-07T09:16:10.863Z,95142.55
2018-11-07T09:18:45.843Z,95142.73
2018-11-07T09:21:20.822Z,95148.20
2018-11-07T09:23:55.428Z,95141.72
2018-11-07T09:26:29.741Z,95147.88
2018-11-07T09:29:08.198Z,95150.06
2018-11-07T09:31:43.312Z,95153.47
2018-11-07T09:34:17.967Z,95148.94
2018-11-07T09:36:52.783Z,95153.41
2018-11-07T09:39:27.930Z,95152.07
2018-11-07T09:42:03.371Z,95145.60
2018-11-07T09:44:38.065Z,95140.81
2018-11-07T09:47:12.614Z,95134.92
2018-11-07T09:49:50.413Z,95127.68
2018-11-07T09:52:24.941Z,95128.54
2018-11-07T09:54:59.685Z,95126.50
2018-11-07T09:57:34.734Z,95120.80
2018-11-07T10:00:12.309Z,95118.19
2018-11-07T10:02:47.229Z,95122.80
2018-11-07T10:05:22.485Z,95121.64
2018-11-07T10:07:57.436Z,95119.09
2018-11-07T10:10:34.428Z,95114.15
2018-11-07T10:13:09.491Z,95113.06
2018-11-07T10:15:44.275Z,95107.77
2018-11-07T10:18:19.152Z,95114.59
2018-11-07T10:20:58.004Z,95109.44
2018-11-07T10:23:33.475Z,95113.98
2018-11-07T10:26:08.815Z,95115.30
2018-11-07T10:28:44.230Z,95120.31
2018-11-07T10:31:24.296Z,95117.55
2018-11-07T10:33:59.020Z,95118.50
2018-11-07T10:36:33.388Z,95116.97
2018-11-07T10:39:10.037Z,95118.72
2018-11-07T10:41:44.482Z,95116.61
2018-11-07T10:44:18.984Z,95116.86
2018-11-07T10:46:54.269Z,95118.34
2018-11-07T10:49:28.968Z,95112.84
2018-11-07T10:52:03.445Z,95106.23
2018-11-07T10:54:38.032Z,95105.30
2018-11-07T10:57:12.675Z,95108.22
2018-11-07T10:59:47.102Z,95101.55
2018-11-07T11:02:27.360Z,95097.31
2018-11-07T11:05:01.713Z,95088.38
2018-11-07T11:07:36.849Z,95087.36
2018-11-07T11:10:12.941Z,95082.99
2018-11-07T11:12:47.861Z,95074.88
2018-11-07T11:15:22.420Z,95066.80
2018-11-07T11:17:57.432Z,95067.87
2018-11-07T11:20:41.847Z,95067.58
2018-11-07T11:23:16.481Z,95060.09
2018-11-07T11:25:51.401Z,95055.03
2018-11-07T11:28:26.104Z,95057.18
2018-11-07T11:31:00.941Z,95053.67
2018-11-07T11:33:35.555Z,95049.00
2018-11-07T11:36:10.912Z,95049.30
2018-11-07T11:38:45.380Z,95058.49
2018-11-07T11:41:20.501Z,95058.55
2018-11-07T11:43:54.804Z,95053.67
2018-11-07T11:46:29.328Z,95051.44
2018-11-07T11:49:04.872Z,95055.58
2018-11-07T11:51:40.863Z,95053.69
2018-11-07T11:54:15.865Z,95049.27
2018-11-07T11:56:50.345Z,95052.34
2018-11-07T11:59:25.463Z,95041.39
2018-11-07T12:02:00.672Z,95047.50
2018-11-07T12:04:35.640Z,95043.32
2018-11-07T12:07:10.023Z,95038.41
2018-11-07T12:09:44.631Z,95036.34
2018-11-07T12:12:19.692Z,95045.06
2018-11-07T12:14:54.140Z,95044.06
2018-11-07T12:17:28.458Z,95041.73
2018-11-07T12:20:02.753Z,95035.95
2018-11-07T12:22:37.314Z,95045.50
2018-11-07T12:25:13.080Z,95034.62
2018-11-07T12:27:47.841Z,95032.48
2018-11-07T12:30:23.870Z,95036.48
2018-11-07T12:32:58.905Z,95039.69
2018-11-07T12:35:33.668Z,95039.13
2018-11-07T12:38:08.058Z,95040.21
2018-11-07T12:40:42.729Z,95039.66
2018-11-07T12:43:17.169Z,95037.01
2018-11-07T12:45:51.842Z,95044.38
2018-11-07T12:48:26.752Z,95046.80
2018-11-07T12:51:01.537Z,95039.20
2018-11-07T12:53:35.877Z,95041.31
2018-11-07T12:56:10.536Z,95038.15
2018-11-07T12:58:45.266Z,95037.36
2018-11-07T13:01:20.190Z,95036.81
2018-11-07T13:03:54.940Z,95037.63
2018-11-07T13:06:29.674Z,95039.74
2018-11-07T13:09:06.082Z,95038.69
2018-11-07T13:11:56.017Z,95050.06
2018-11-07T13:14:32.856Z,95051.93
2018-11-07T13:17:07.962Z,95048.47
2018-11-07T13:19:43.436Z,95045.55
2018-11-07T13:22:20.028Z,95048.44
2018-11-07T13:24:56.266Z,95050.77
2018-11-07T13:27:31.881Z,95050.50
2018-11-07T13:30:18.599Z,95042.86
2018-11-07T13:32:53.597Z,95045.73
2018-11-07T13:35:29.886Z,95042.78
2018-11-07T13:38:08.892Z,95045.69
2018-11-07T13:40:51.703Z,95045.13
2018-11-07T13:43:27.101Z,95046.31
2018-11-07T13:46:05.997Z,95052.96
2018-11-07T13:48:41.121Z,95054.61
2018-11-07T13:51:15.504Z,95055.95
2018-11-07T13:53:49.908Z,95055.96
2018-11-07T13:56:24.725Z,95057.22
2018-11-07T13:58:59.089Z,95055.75
2018-11-07T14:01:33.558Z,95058.42
2018-11-07T14:04:08.243Z,95057.45
2018-11-07T14:06:43.739Z,95055.20
2018-11-07T14:09:18.261Z,95052.70
2018-11-07T14:11:53.403Z,95062.97
2018-11-07T14:14:27.860Z,95066.98
2018-11-07T14:17:03.163Z,95062.15
2018-11-07T14:19:38.133Z,95063.78
2018-11-07T14:22:13.096Z,95062.16
2018-11-07T14:24:47.653Z,95059.91
2018-11-07T14:27:22.547Z,95062.11
2018-11-07T14:29:58.329Z,95059.48
2018-11-07T14:32:32.850Z,95059.11
2018-11-07T14:35:07.508Z,95063.52
2018-11-07T14:37:42.213Z,95064.25
2018-11-07T14:40:17.363Z,95060.69
2018-11-07T14:42:52.436Z,95058.47
2018-11-07T14:45:27.416Z,95060.34
2018-11-07T14:48:01.976Z,95061.77
2018-11-07T14:50:43.806Z,95059.04
2018-11-07T14:53:24.785Z,95061.79
2018-11-07T14:55:59.744Z,95063.75
2018-11-07T14:58:35.378Z,95061.52
2018-11-07T15:01:09.808Z,95064.55
2018-11-07T15:03:48.752Z,95061.23
2018-11-07T15:06:35.009Z,95070.78
2018-11-07T15:09:10.103Z,95075.99
2018-11-07T15:11:44.832Z,95073.98
2018-11-07T15:14:19.465Z,95066.30
2018-11-07T15:17:03.706Z,95076.63
2018-11-07T15:19:38.808Z,95073.03
2018-11-07T15:22:13.590Z,95071.28
2018-11-07T15:24:48.357Z,95075.92
2018-11-07T15:27:23.413Z,95063.36
2018-11-07T15:30:00.986Z,95074.81
2018-11-07T15:32:36.350Z,95068.61
2018-11-07T15:35:11.933Z,95072.12
2018-11-07T15:37:47.481Z,95080.50
2018-11-07T15:40:22.254Z,95082.16
2018-11-07T15:42:56.609Z,95095.64
2018-11-07T15:45:31.618Z,95095.51
2018-11-07T15:48:06.801Z,95099.64
2018-11-07T15:50:46.886Z,95095.61
2018-11-07T15:53:21.367Z,95098.39
2018-11-07T15:55:55.737Z,95100.63
2018-11-07T15:58:30.173Z,95104.31
2018-11-07T16:01:04.989Z,95106.23
2018-11-07T16:03:44.800Z,95119.47
2018-11-07T16:06:20.726Z,95118.12
2018-11-07T16:08:57.172Z,95123.59
2018-11-07T16:11:31.764Z,95129.24
2018-11-07T16:14:06.641Z,95130.31
2018-11-07T16:16:41.192Z,95131.77
2018-11-07T16:19:15.677Z,95135.30
2018-11-07T16:21:50.350Z,95146.01
2018-11-07T16:24:25.041Z,95148.97
2018-11-07T16:26:59.768Z,95145.98
2018-11-07T16:29:34.869Z,95158.61
2018-11-07T16:32:09.291Z,95160.04
2018-11-07T16:34:43.746Z,95164.69
2018-11-07T16:37:18.571Z,95170.62
2018-11-07T16:39:52.904Z,95165.79
2018-11-07T16:42:27.598Z,95171.63
2018-11-07T16:45:02.666Z,95169.20
2018-11-07T16:47:37.661Z,95174.64
2018-11-07T16:50:14.056Z,95186.48
2018-11-07T16:52:48.622Z,95194.73
2018-11-07T16:55:23.308Z,95198.64
2018-11-07T16:57:58.711Z,95206.97
2018-11-07T17:00:33.217Z,95212.07
2018-11-07T17:03:07.803Z,95217.48
2018-11-07T17:05:43.716Z,95228.81
2018-11-07T17:08:18.252Z,95225.69
2018-11-07T17:10:52.716Z,95223.00
2018-11-07T17:13:27.648Z,95230.31
2018-11-07T17:16:02.489Z,95238.23
2018-11-07T17:18:36.959Z,95244.24
2018-11-07T17:21:11.423Z,95245.05
2018-11-07T17:23:45.729Z,95245.17
2018-11-07T17:26:21.082Z,95255.39
2018-11-07T17:28:55.846Z,95259.99
2018-11-07T17:31:30.674Z,95258.41
2018-11-07T17:34:05.992Z,95266.73
2018-11-07T17:36:40.713Z,95262.90
2018-11-07T17:39:20.116Z,95275.06
2018-11-07T17:42:02.080Z,95273.66
2018-11-07T17:44:41.617Z,95276.75
2018-11-07T17:47:22.540Z,95279.06
2018-11-07T17:49:57.945Z,95278.88
2018-11-07T17:52:46.246Z,95291.78
2018-11-07T17:55:24.155Z,95303.14
2018-11-07T17:57:59.236Z,95312.94
2018-11-07T18:00:35.524Z,95309.44
2018-11-07T18:03:10.136Z,95320.33
2018-11-07T18:05:46.517Z,95323.23
2018-11-07T18:08:20.845Z,95327.17
2018-11-07T18:10:55.141Z,95324.20
2018-11-07T18:13:29.912Z,95330.34
2018-11-07T18:16:04.667Z,95334.98
2018-11-07T18:18:40.013Z,95339.66
2018-11-07T18:21:15.328Z,95351.58
2018-11-07T18:23:50.048Z,95343.56
2018-11-07T18:26:24.685Z,95347.47
2018-11-07T18:28:59.157Z,95356.55
2018-11-07T18:31:35.141Z,95356.42
2018-11-07T18:34:09.732Z,95358.86
2018-11-07T18:36:44.830Z,95364.28
2018-11-07T18:39:20.016Z,95361.38
2018-11-07T18:41:54.602Z,95362.69
2018-11-07T18:44:31.235Z,95365.39
2018-11-07T18:47:06.278Z,95365.23
2018-11-07T18:49:41.257Z,95356.90
2018-11-07T18:52:16.556Z,95362.30
2018-11-07T18:54:50.929Z,95368.34
2018-11-07T18:57:25.696Z,95375.53
2018-11-07T19:00:00.674Z,95377.66
2018-11-07T19:02:44.370Z,95390.08
2018-11-07T19:05:21.701Z,95398.54
2018-11-07T19:07:56.570Z,95406.77
2018-11-07T19:10:32.762Z,95406.77
2018-11-07T19:13:08.293Z,95409.83
2018-11-07T19:15:43.187Z,95408.03
2018-11-07T19:18:18.123Z,95416.40
2018-11-07T19:20:52.781Z,95422.20
2018-11-07T19:23:27.300Z,95418.94
2018-11-07T19:26:01.780Z,95426.83
2018-11-07T19:28:36.676Z,95432.38
2018-11-07T19:31:11.078Z,95431.42
2018-11-07T19:33:45.517Z,95443.23
2018-11-07T19:36:19.833Z,95446.11
2018-11-07T19:38:54.586Z,95449.05
2018-11-07T19:41:29.033Z,95449.42
2018-11-07T19:44:03.456Z,95451.75
2018-11-07T19:46:37.932Z,95452.21
2018-11-07T19:49:12.454Z,95458.93
2018-11-07T19:51:47.028Z,95464.56
2018-11-07T19:54:21.681Z,95467.81
2018-11-07T19:59:39.072Z,95475.73
2018-11-07T20:02:13.562Z,95476.19
2018-11-07T20:04:49.170Z,95475.91
2018-11-07T20:07:23.622Z,95476.35
2018-11-07T20:09:58.485Z,95473.47
2018-11-07T20:12:34.829Z,95480.13
2018-11-07T20:15:10.493Z,95486.63
2018-11-07T20:17:45.077Z,95488.91
2018-11-07T20:20:19.888Z,95489.91
2018-11-07T20:22:54.393Z,95493.64
2018-11-07T20:25:29.480Z,95498.41
2018-11-07T20:28:04.329Z,95505.43
2018-11-07T20:30:39.736Z,95514.22
2018-11-07T20:33:14.306Z,95524.36
2018-11-07T20:35:49.511Z,95536.86
2018-11-07T20:38:24.108Z,95537.41
2018-11-07T20:41:26.365Z,95540.87
2018-11-07T20:44:04.289Z,95548.19
2018-11-07T20:46:44.893Z,95554.87
2018-11-07T20:49:22.685Z,95546.27
2018-11-07T20:51:58.303Z,95552.77
2018-11-07T20:54:33.033Z,95554.48
2018-11-07T20:57:22.713Z,95551.59
2018-11-07T21:00:18.041Z,95552.49
2018-11-07T21:02:52.922Z,95557.57
2018-11-07T21:05:27.868Z,95564.55
2018-11-07T21:08:02.329Z,95566.64
2018-11-07T21:10:36.770Z,95567.14
2018-11-07T21:13:11.525Z,95572.02
2018-11-07T21:15:46.053Z,95568.75
2018-11-07T21:18:24.261Z,95574.93
2018-11-07T21:20:58.724Z,95578.34
2018-11-07T21:23:42.947Z,95580.00
2018-11-07T21:28:58.195Z,95584.12
2018-11-07T21:31:35.688Z,95587.98
2018-11-07T21:34:10.637Z,95597.06
2018-11-07T21:36:45.125Z,95601.28
2018-11-07T21:39:19.439Z,95603.78
2018-11-07T21:41:53.890Z,95609.33
2018-11-07T21:44:28.316Z,95608.03
2018-11-07T21:47:02.791Z,95614.52
2018-11-07T21:49:37.785Z,95609.33
2018-11-07T21:52:12.573Z,95614.84
2018-11-07T21:54:46.903Z,95612.91
2018-11-07T21:57:22.311Z,95617.30
2018-11-07T21:59:57.432Z,95614.58
2018-11-07T22:02:31.758Z,95618.06
2018-11-07T22:05:07.060Z,95625.05
2018-11-07T22:07:42.122Z,95627.36
2018-11-07T22:10:18.121Z,95631.16
2018-11-07T22:12:52.652Z,95628.73
2018-11-07T22:15:27.341Z,95632.88
2018-11-07T22:18:02.560Z,95635.61
2018-11-07T22:20:36.956Z,95639.39
2018-11-07T22:23:11.543Z,95640.58
2018-11-07T22:25:47.098Z,95644.15
2018-11-07T22:28:21.925Z,95643.38
2018-11-07T22:30:56.409Z,95642.59
2018-11-07T22:33:31.115Z,95645.67
2018-11-07T22:36:05.645Z,95643.94
2018-11-07T22:38:40.392Z,95647.36
2018-11-07T22:41:15.136Z,95655.31
2018-11-07T22:43:49.564Z,95654.38
2018-11-07T22:46:24.488Z,95655.02
2018-11-07T22:48:59.342Z,95659.56
2018-11-07T22:51:33.973Z,95662.33
2018-11-07T22:54:08.408Z,95656.19
2018-11-07T22:56:42.750Z,95658.28
2018-11-07T22:59:17.465Z,95662.03
2018-11-07T23:01:52.135Z,95668.52
2018-11-07T23:04:26.862Z,95664.30
2018-11-07T23:07:01.258Z,95662.69
2018-11-07T23:09:35.808Z,95669.02
2018-11-07T23:12:10.474Z,95668.68
2018-11-07T23:14:45.071Z,95673.57
2018-11-07T23:17:19.497Z,95685.24
2018-11-07T23:19:54.489Z,95682.47
2018-11-07T23:22:29.105Z,95684.23
2018-11-07T23:25:04.014Z,95688.45
2018-11-07T23:27:38.609Z,95685.88
2018-11-07T23:30:13.165Z,95688.95
2018-11-07T23:32:47.703Z,95694.61
2018-11-07T23:35:22.220Z,95699.31
2018-11-07T23:37:56.808Z,95699.95
2018-11-07T23:40:31.600Z,95700.10
2018-11-07T23:43:06.294Z,95704.14
2018-11-07T23:45:41.032Z,95707.86
2018-11-07T23:48:15.772Z,95702.19
2018-11-07T23:50:50.201Z,95707.73
2018-11-07T23:53:25.128Z,95715.15
2018-11-07T23:56:00.338Z,95710.15
2018-11-07T23:58:34.976Z,95711.91
